sensor_id;sensor_type;location;lat;lon;timestamp;temperature;humidity
55777;DHT22;54079;44.540;18.784;2023-08-08T00:01:31;17.20;98.80
55777;DHT22;54079;44.540;18.784;2023-08-08T00:03:57;17.30;98.50
55777;DHT22;54079;44.540;18.784;2023-08-08T00:06:23;17.20;98.60
55777;DHT22;54079;44.540;18.784;2023-08-08T00:08:49;17.20;99.10
55777;DHT22;54079;44.540;18.784;2023-08-08T00:11:15;16.90;99.90
55777;DHT22;54079;44.540;18.784;2023-08-08T00:13:41;17.00;99.90
55777;DHT22;54079;44.540;18.784;2023-08-08T00:16:07;17.00;99.70
55777;DHT22;54079;44.540;18.784;2023-08-08T00:18:32;16.90;99.80
55777;DHT22;54079;44.540;18.784;2023-08-08T00:20:58;16.80;99.90
55777;DHT22;54079;44.540;18.784;2023-08-08T00:23:24;16.80;99.90
55777;DHT22;54079;44.540;18.784;2023-08-08T00:25:50;16.50;99.90
55777;DHT22;54079;44.540;18.784;2023-08-08T00:28:17;16.50;99.90
55777;DHT22;54079;44.540;18.784;2023-08-08T00:30:43;16.60;99.90
55777;DHT22;54079;44.540;18.784;2023-08-08T00:33:09;16.70;99.90
55777;DHT22;54079;44.540;18.784;2023-08-08T00:35:35;16.80;99.90
55777;DHT22;54079;44.540;18.784;2023-08-08T00:38:01;16.80;99.90
55777;DHT22;54079;44.540;18.784;2023-08-08T00:40:27;16.90;99.50
55777;DHT22;54079;44.540;18.784;2023-08-08T00:42:53;16.90;99.70
55777;DHT22;54079;44.540;18.784;2023-08-08T00:45:19;16.90;99.50
55777;DHT22;54079;44.540;18.784;2023-08-08T00:47:45;16.90;99.50
55777;DHT22;54079;44.540;18.784;2023-08-08T00:50:11;16.80;99.40
55777;DHT22;54079;44.540;18.784;2023-08-08T00:52:38;16.80;99.60
55777;DHT22;54079;44.540;18.784;2023-08-08T00:55:06;16.90;99.40
55777;DHT22;54079;44.540;18.784;2023-08-08T00:57:32;16.90;98.70
55777;DHT22;54079;44.540;18.784;2023-08-08T00:59:58;16.90;98.50
55777;DHT22;54079;44.540;18.784;2023-08-08T01:02:24;17.00;98.30
55777;DHT22;54079;44.540;18.784;2023-08-08T01:04:50;17.00;98.00
55777;DHT22;54079;44.540;18.784;2023-08-08T01:07:41;16.80;98.70
55777;DHT22;54079;44.540;18.784;2023-08-08T01:10:15;16.80;98.90
55777;DHT22;54079;44.540;18.784;2023-08-08T01:12:47;16.80;98.20
55777;DHT22;54079;44.540;18.784;2023-08-08T01:15:14;16.60;98.50
55777;DHT22;54079;44.540;18.784;2023-08-08T01:17:42;16.60;99.00
55777;DHT22;54079;44.540;18.784;2023-08-08T01:20:09;16.70;98.70
55777;DHT22;54079;44.540;18.784;2023-08-08T01:22:40;16.80;98.20
55777;DHT22;54079;44.540;18.784;2023-08-08T01:25:09;16.20;99.90
55777;DHT22;54079;44.540;18.784;2023-08-08T01:27:35;16.00;99.90
55777;DHT22;54079;44.540;18.784;2023-08-08T01:30:02;16.10;99.90
55777;DHT22;54079;44.540;18.784;2023-08-08T01:32:29;16.40;99.90
55777;DHT22;54079;44.540;18.784;2023-08-08T01:34:55;16.50;99.80
55777;DHT22;54079;44.540;18.784;2023-08-08T01:37:28;16.00;99.90
55777;DHT22;54079;44.540;18.784;2023-08-08T01:39:57;15.80;99.90
55777;DHT22;54079;44.540;18.784;2023-08-08T01:42:24;15.70;99.90
55777;DHT22;54079;44.540;18.784;2023-08-08T01:44:51;15.60;99.90
55777;DHT22;54079;44.540;18.784;2023-08-08T01:47:18;15.80;99.90
55777;DHT22;54079;44.540;18.784;2023-08-08T01:49:44;15.80;99.90
55777;DHT22;54079;44.540;18.784;2023-08-08T01:52:10;15.80;99.90
55777;DHT22;54079;44.540;18.784;2023-08-08T01:54:36;15.80;99.90
55777;DHT22;54079;44.540;18.784;2023-08-08T01:57:02;15.90;99.90
55777;DHT22;54079;44.540;18.784;2023-08-08T01:59:28;16.00;99.90
55777;DHT22;54079;44.540;18.784;2023-08-08T02:01:54;16.00;99.60
55777;DHT22;54079;44.540;18.784;2023-08-08T02:04:20;16.10;99.50
55777;DHT22;54079;44.540;18.784;2023-08-08T02:06:46;16.10;99.90
55777;DHT22;54079;44.540;18.784;2023-08-08T02:09:12;15.80;99.90
55777;DHT22;54079;44.540;18.784;2023-08-08T02:11:41;15.80;99.90
55777;DHT22;54079;44.540;18.784;2023-08-08T02:14:07;15.80;99.90
55777;DHT22;54079;44.540;18.784;2023-08-08T02:16:33;16.00;99.90
55777;DHT22;54079;44.540;18.784;2023-08-08T02:19:00;15.90;99.90
55777;DHT22;54079;44.540;18.784;2023-08-08T02:21:26;15.80;99.90
55777;DHT22;54079;44.540;18.784;2023-08-08T02:23:52;15.70;99.90
55777;DHT22;54079;44.540;18.784;2023-08-08T02:26:18;15.50;99.90
55777;DHT22;54079;44.540;18.784;2023-08-08T02:28:44;15.30;99.90
55777;DHT22;54079;44.540;18.784;2023-08-08T02:31:10;15.40;99.90
55777;DHT22;54079;44.540;18.784;2023-08-08T02:33:36;15.40;99.90
55777;DHT22;54079;44.540;18.784;2023-08-08T02:36:02;15.10;99.90
55777;DHT22;54079;44.540;18.784;2023-08-08T02:38:28;15.20;99.90
55777;DHT22;54079;44.540;18.784;2023-08-08T02:40:54;15.30;99.90
55777;DHT22;54079;44.540;18.784;2023-08-08T02:43:20;15.50;99.90
55777;DHT22;54079;44.540;18.784;2023-08-08T02:45:45;15.50;99.90
55777;DHT22;54079;44.540;18.784;2023-08-08T02:48:11;15.50;99.90
55777;DHT22;54079;44.540;18.784;2023-08-08T02:50:37;15.40;99.90
55777;DHT22;54079;44.540;18.784;2023-08-08T02:53:03;15.50;99.90
55777;DHT22;54079;44.540;18.784;2023-08-08T02:55:29;15.60;99.90
55777;DHT22;54079;44.540;18.784;2023-08-08T02:57:55;15.60;99.90
55777;DHT22;54079;44.540;18.784;2023-08-08T03:00:21;15.60;99.90
55777;DHT22;54079;44.540;18.784;2023-08-08T03:02:47;15.30;99.90
55777;DHT22;54079;44.540;18.784;2023-08-08T03:05:13;15.40;99.90
55777;DHT22;54079;44.540;18.784;2023-08-08T03:07:39;15.00;99.90
55777;DHT22;54079;44.540;18.784;2023-08-08T03:10:05;15.10;99.90
55777;DHT22;54079;44.540;18.784;2023-08-08T03:12:31;15.20;99.90
55777;DHT22;54079;44.540;18.784;2023-08-08T03:14:57;15.20;99.90
55777;DHT22;54079;44.540;18.784;2023-08-08T03:17:23;15.20;99.90
55777;DHT22;54079;44.540;18.784;2023-08-08T03:19:49;14.70;99.90
55777;DHT22;54079;44.540;18.784;2023-08-08T03:22:15;14.70;99.90
55777;DHT22;54079;44.540;18.784;2023-08-08T03:24:41;14.70;99.90
55777;DHT22;54079;44.540;18.784;2023-08-08T03:27:07;14.70;99.90
55777;DHT22;54079;44.540;18.784;2023-08-08T03:29:33;14.30;99.90
55777;DHT22;54079;44.540;18.784;2023-08-08T03:31:59;14.20;99.90
55777;DHT22;54079;44.540;18.784;2023-08-08T03:34:24;14.40;99.90
55777;DHT22;54079;44.540;18.784;2023-08-08T03:36:50;14.50;99.90
55777;DHT22;54079;44.540;18.784;2023-08-08T03:39:16;14.40;99.90
55777;DHT22;54079;44.540;18.784;2023-08-08T03:41:42;14.50;99.90
55777;DHT22;54079;44.540;18.784;2023-08-08T03:44:08;14.40;99.90
55777;DHT22;54079;44.540;18.784;2023-08-08T03:46:34;14.50;99.90
55777;DHT22;54079;44.540;18.784;2023-08-08T03:49:00;14.70;99.90
55777;DHT22;54079;44.540;18.784;2023-08-08T03:51:26;14.90;99.90
55777;DHT22;54079;44.540;18.784;2023-08-08T03:53:52;15.10;99.90
55777;DHT22;54079;44.540;18.784;2023-08-08T03:56:18;15.30;99.90
55777;DHT22;54079;44.540;18.784;2023-08-08T03:58:44;15.30;99.90
55777;DHT22;54079;44.540;18.784;2023-08-08T04:01:10;15.30;99.90
55777;DHT22;54079;44.540;18.784;2023-08-08T04:03:36;15.30;99.90
55777;DHT22;54079;44.540;18.784;2023-08-08T04:06:02;15.20;99.90
55777;DHT22;54079;44.540;18.784;2023-08-08T04:08:28;15.00;99.90
55777;DHT22;54079;44.540;18.784;2023-08-08T04:10:55;14.80;99.90
55777;DHT22;54079;44.540;18.784;2023-08-08T04:13:21;14.80;99.90
55777;DHT22;54079;44.540;18.784;2023-08-08T04:15:47;14.70;99.90
55777;DHT22;54079;44.540;18.784;2023-08-08T04:18:13;14.80;99.90
55777;DHT22;54079;44.540;18.784;2023-08-08T04:20:39;14.80;99.90
55777;DHT22;54079;44.540;18.784;2023-08-08T04:23:04;14.90;99.90
55777;DHT22;54079;44.540;18.784;2023-08-08T04:25:30;15.20;99.90
55777;DHT22;54079;44.540;18.784;2023-08-08T04:27:56;15.50;99.90
55777;DHT22;54079;44.540;18.784;2023-08-08T04:30:22;15.50;99.10
55777;DHT22;54079;44.540;18.784;2023-08-08T04:32:49;15.10;99.90
55777;DHT22;54079;44.540;18.784;2023-08-08T04:35:15;14.90;99.90
55777;DHT22;54079;44.540;18.784;2023-08-08T04:37:41;15.00;99.90
55777;DHT22;54079;44.540;18.784;2023-08-08T04:40:08;15.20;99.90
55777;DHT22;54079;44.540;18.784;2023-08-08T04:42:34;15.40;99.60
55777;DHT22;54079;44.540;18.784;2023-08-08T04:45:00;15.50;98.40
55777;DHT22;54079;44.540;18.784;2023-08-08T04:47:26;15.40;98.30
55777;DHT22;54079;44.540;18.784;2023-08-08T04:49:52;15.10;99.00
55777;DHT22;54079;44.540;18.784;2023-08-08T04:52:18;15.00;99.50
55777;DHT22;54079;44.540;18.784;2023-08-08T04:54:44;15.30;98.70
55777;DHT22;54079;44.540;18.784;2023-08-08T04:57:10;15.40;98.00
55777;DHT22;54079;44.540;18.784;2023-08-08T04:59:36;15.80;97.40
55777;DHT22;54079;44.540;18.784;2023-08-08T05:02:02;16.40;96.20
55777;DHT22;54079;44.540;18.784;2023-08-08T05:04:28;17.00;94.70
55777;DHT22;54079;44.540;18.784;2023-08-08T05:06:54;17.30;92.70
55777;DHT22;54079;44.540;18.784;2023-08-08T05:09:20;17.50;91.70
55777;DHT22;54079;44.540;18.784;2023-08-08T05:11:46;17.30;91.40
55777;DHT22;54079;44.540;18.784;2023-08-08T05:14:12;17.30;91.60
55777;DHT22;54079;44.540;18.784;2023-08-08T05:16:38;17.20;91.30
55777;DHT22;54079;44.540;18.784;2023-08-08T05:19:04;18.40;91.30
55777;DHT22;54079;44.540;18.784;2023-08-08T05:21:30;21.30;84.80
55777;DHT22;54079;44.540;18.784;2023-08-08T05:23:55;23.70;76.30
55777;DHT22;54079;44.540;18.784;2023-08-08T05:26:21;25.40;71.00
55777;DHT22;54079;44.540;18.784;2023-08-08T05:28:48;27.40;66.60
55777;DHT22;54079;44.540;18.784;2023-08-08T05:31:13;29.10;63.10
55777;DHT22;54079;44.540;18.784;2023-08-08T05:33:39;30.00;59.80
55777;DHT22;54079;44.540;18.784;2023-08-08T05:36:05;29.10;60.00
55777;DHT22;54079;44.540;18.784;2023-08-08T05:38:31;27.80;60.70
55777;DHT22;54079;44.540;18.784;2023-08-08T05:40:57;26.30;62.80
55777;DHT22;54079;44.540;18.784;2023-08-08T05:43:23;24.80;65.90
55777;DHT22;54079;44.540;18.784;2023-08-08T05:45:49;24.00;67.00
55777;DHT22;54079;44.540;18.784;2023-08-08T05:48:15;23.30;66.70
55777;DHT22;54079;44.540;18.784;2023-08-08T05:50:41;22.90;68.90
55777;DHT22;54079;44.540;18.784;2023-08-08T05:53:07;22.80;70.70
55777;DHT22;54079;44.540;18.784;2023-08-08T05:55:33;22.50;70.60
55777;DHT22;54079;44.540;18.784;2023-08-08T05:57:59;22.20;72.20
55777;DHT22;54079;44.540;18.784;2023-08-08T06:00:25;22.10;71.80
55777;DHT22;54079;44.540;18.784;2023-08-08T06:02:51;21.80;72.80
55777;DHT22;54079;44.540;18.784;2023-08-08T06:05:17;21.80;72.60
55777;DHT22;54079;44.540;18.784;2023-08-08T06:07:43;21.60;73.30
55777;DHT22;54079;44.540;18.784;2023-08-08T06:10:09;21.10;75.20
55777;DHT22;54079;44.540;18.784;2023-08-08T06:12:36;21.30;76.10
55777;DHT22;54079;44.540;18.784;2023-08-08T06:15:02;21.20;75.60
55777;DHT22;54079;44.540;18.784;2023-08-08T06:17:29;21.20;76.10
55777;DHT22;54079;44.540;18.784;2023-08-08T06:19:55;21.20;75.90
55777;DHT22;54079;44.540;18.784;2023-08-08T06:22:22;21.20;76.60
55777;DHT22;54079;44.540;18.784;2023-08-08T06:24:48;21.20;76.50
55777;DHT22;54079;44.540;18.784;2023-08-08T06:27:14;21.00;77.30
55777;DHT22;54079;44.540;18.784;2023-08-08T06:29:41;21.10;76.80
55777;DHT22;54079;44.540;18.784;2023-08-08T06:32:07;21.40;76.40
55777;DHT22;54079;44.540;18.784;2023-08-08T06:34:33;21.40;76.90
55777;DHT22;54079;44.540;18.784;2023-08-08T06:36:59;21.70;76.80
55777;DHT22;54079;44.540;18.784;2023-08-08T06:39:25;21.90;76.70
55777;DHT22;54079;44.540;18.784;2023-08-08T06:41:51;22.10;76.60
55777;DHT22;54079;44.540;18.784;2023-08-08T06:44:17;22.70;75.50
55777;DHT22;54079;44.540;18.784;2023-08-08T06:46:43;23.40;74.00
55777;DHT22;54079;44.540;18.784;2023-08-08T06:49:09;24.40;72.40
55777;DHT22;54079;44.540;18.784;2023-08-08T06:51:35;24.90;71.20
55777;DHT22;54079;44.540;18.784;2023-08-08T06:54:01;25.30;70.80
55777;DHT22;54079;44.540;18.784;2023-08-08T06:56:27;26.40;69.00
55777;DHT22;54079;44.540;18.784;2023-08-08T06:58:53;27.60;67.70
55777;DHT22;54079;44.540;18.784;2023-08-08T07:01:19;29.10;64.20
55777;DHT22;54079;44.540;18.784;2023-08-08T07:03:45;29.20;63.30
55777;DHT22;54079;44.540;18.784;2023-08-08T07:06:12;29.70;62.60
55777;DHT22;54079;44.540;18.784;2023-08-08T07:08:38;29.20;62.20
55777;DHT22;54079;44.540;18.784;2023-08-08T07:11:07;28.80;62.60
55777;DHT22;54079;44.540;18.784;2023-08-08T07:13:33;29.00;62.30
55777;DHT22;54079;44.540;18.784;2023-08-08T07:16:00;29.60;61.20
55777;DHT22;54079;44.540;18.784;2023-08-08T07:18:26;30.60;59.90
55777;DHT22;54079;44.540;18.784;2023-08-08T07:20:52;31.40;57.90
55777;DHT22;54079;44.540;18.784;2023-08-08T07:23:18;32.00;57.70
55777;DHT22;54079;44.540;18.784;2023-08-08T07:25:45;33.90;56.50
55777;DHT22;54079;44.540;18.784;2023-08-08T07:28:12;35.40;51.90
55777;DHT22;54079;44.540;18.784;2023-08-08T07:30:40;34.70;53.10
55777;DHT22;54079;44.540;18.784;2023-08-08T07:33:07;35.60;51.20
55777;DHT22;54079;44.540;18.784;2023-08-08T07:35:35;35.40;47.00
55777;DHT22;54079;44.540;18.784;2023-08-08T07:38:01;36.70;47.20
55777;DHT22;54079;44.540;18.784;2023-08-08T07:40:27;37.70;47.40
55777;DHT22;54079;44.540;18.784;2023-08-08T07:42:53;37.80;45.70
55777;DHT22;54079;44.540;18.784;2023-08-08T07:45:19;40.30;45.00
55777;DHT22;54079;44.540;18.784;2023-08-08T07:47:46;43.10;43.10
55777;DHT22;54079;44.540;18.784;2023-08-08T07:50:12;44.60;41.20
55777;DHT22;54079;44.540;18.784;2023-08-08T07:52:38;45.00;39.50
55777;DHT22;54079;44.540;18.784;2023-08-08T07:55:05;44.30;39.80
55777;DHT22;54079;44.540;18.784;2023-08-08T07:57:32;45.60;40.00
55777;DHT22;54079;44.540;18.784;2023-08-08T08:00:00;46.90;39.20
55777;DHT22;54079;44.540;18.784;2023-08-08T08:02:32;47.20;39.10
55777;DHT22;54079;44.540;18.784;2023-08-08T08:04:58;47.90;37.10
55777;DHT22;54079;44.540;18.784;2023-08-08T08:07:24;43.00;37.90
55777;DHT22;54079;44.540;18.784;2023-08-08T08:09:50;45.20;38.30
55777;DHT22;54079;44.540;18.784;2023-08-08T08:12:16;46.30;36.80
55777;DHT22;54079;44.540;18.784;2023-08-08T08:14:42;47.80;37.40
55777;DHT22;54079;44.540;18.784;2023-08-08T08:17:08;48.20;34.70
55777;DHT22;54079;44.540;18.784;2023-08-08T08:19:34;49.30;35.80
55777;DHT22;54079;44.540;18.784;2023-08-08T08:22:00;49.10;35.20
55777;DHT22;54079;44.540;18.784;2023-08-08T08:24:26;48.40;35.50
55777;DHT22;54079;44.540;18.784;2023-08-08T08:26:52;43.60;34.50
55777;DHT22;54079;44.540;18.784;2023-08-08T08:29:17;44.70;34.60
55777;DHT22;54079;44.540;18.784;2023-08-08T08:31:43;45.20;36.40
55777;DHT22;54079;44.540;18.784;2023-08-08T08:34:09;44.40;35.10
55777;DHT22;54079;44.540;18.784;2023-08-08T08:36:35;41.80;36.80
55777;DHT22;54079;44.540;18.784;2023-08-08T08:39:01;42.30;37.00
55777;DHT22;54079;44.540;18.784;2023-08-08T08:41:28;44.00;37.70
55777;DHT22;54079;44.540;18.784;2023-08-08T08:43:54;45.20;37.40
55777;DHT22;54079;44.540;18.784;2023-08-08T08:46:21;46.90;36.00
55777;DHT22;54079;44.540;18.784;2023-08-08T08:48:49;48.10;35.00
55777;DHT22;54079;44.540;18.784;2023-08-08T08:51:16;49.30;34.80
55777;DHT22;54079;44.540;18.784;2023-08-08T08:53:42;48.00;32.50
55777;DHT22;54079;44.540;18.784;2023-08-08T08:56:15;47.00;35.30
55777;DHT22;54079;44.540;18.784;2023-08-08T08:58:42;49.10;33.60
55777;DHT22;54079;44.540;18.784;2023-08-08T09:01:09;46.40;33.20
55777;DHT22;54079;44.540;18.784;2023-08-08T09:03:36;42.60;36.70
55777;DHT22;54079;44.540;18.784;2023-08-08T09:06:03;40.00;37.40
55777;DHT22;54079;44.540;18.784;2023-08-08T09:08:29;38.20;38.50
55777;DHT22;54079;44.540;18.784;2023-08-08T09:10:56;36.50;40.60
55777;DHT22;54079;44.540;18.784;2023-08-08T09:13:22;34.60;41.40
55777;DHT22;54079;44.540;18.784;2023-08-08T09:15:52;35.30;40.70
55777;DHT22;54079;44.540;18.784;2023-08-08T09:18:18;36.00;42.20
55777;DHT22;54079;44.540;18.784;2023-08-08T09:20:50;33.40;41.10
55777;DHT22;54079;44.540;18.784;2023-08-08T09:23:16;31.30;44.00
55777;DHT22;54079;44.540;18.784;2023-08-08T09:25:42;30.60;45.90
55777;DHT22;54079;44.540;18.784;2023-08-08T09:28:08;30.10;47.80
55777;DHT22;54079;44.540;18.784;2023-08-08T09:30:34;30.10;47.10
55777;DHT22;54079;44.540;18.784;2023-08-08T09:33:01;29.90;50.20
55777;DHT22;54079;44.540;18.784;2023-08-08T09:35:30;30.00;48.60
55777;DHT22;54079;44.540;18.784;2023-08-08T09:37:56;30.10;46.90
55777;DHT22;54079;44.540;18.784;2023-08-08T09:40:23;28.50;48.70
55777;DHT22;54079;44.540;18.784;2023-08-08T09:42:52;28.60;47.80
55777;DHT22;54079;44.540;18.784;2023-08-08T09:45:19;28.20;48.50
55777;DHT22;54079;44.540;18.784;2023-08-08T09:47:45;27.50;47.10
55777;DHT22;54079;44.540;18.784;2023-08-08T09:50:11;27.00;49.80
55777;DHT22;54079;44.540;18.784;2023-08-08T09:52:38;27.30;49.80
55777;DHT22;54079;44.540;18.784;2023-08-08T09:55:05;27.30;48.60
55777;DHT22;54079;44.540;18.784;2023-08-08T09:57:32;27.50;49.80
55777;DHT22;54079;44.540;18.784;2023-08-08T09:59:58;27.90;47.90
55777;DHT22;54079;44.540;18.784;2023-08-08T10:02:24;28.60;48.50
55777;DHT22;54079;44.540;18.784;2023-08-08T10:04:51;28.80;49.20
55777;DHT22;54079;44.540;18.784;2023-08-08T10:07:18;28.30;49.50
55777;DHT22;54079;44.540;18.784;2023-08-08T10:09:44;28.00;50.70
55777;DHT22;54079;44.540;18.784;2023-08-08T10:12:11;27.70;50.70
55777;DHT22;54079;44.540;18.784;2023-08-08T10:14:38;27.40;51.20
55777;DHT22;54079;44.540;18.784;2023-08-08T10:17:07;27.60;52.00
55777;DHT22;54079;44.540;18.784;2023-08-08T10:19:33;28.00;51.80
55777;DHT22;54079;44.540;18.784;2023-08-08T10:22:04;28.30;53.60
55777;DHT22;54079;44.540;18.784;2023-08-08T10:24:37;28.70;51.40
55777;DHT22;54079;44.540;18.784;2023-08-08T10:27:04;27.40;46.90
55777;DHT22;54079;44.540;18.784;2023-08-08T10:29:33;27.20;49.80
55777;DHT22;54079;44.540;18.784;2023-08-08T10:32:04;26.70;50.80
55777;DHT22;54079;44.540;18.784;2023-08-08T10:34:43;27.00;52.40
55777;DHT22;54079;44.540;18.784;2023-08-08T10:37:15;27.40;51.70
55777;DHT22;54079;44.540;18.784;2023-08-08T10:39:54;27.70;50.10
55777;DHT22;54079;44.540;18.784;2023-08-08T10:42:22;27.90;52.00
55777;DHT22;54079;44.540;18.784;2023-08-08T10:44:56;26.80;50.80
55777;DHT22;54079;44.540;18.784;2023-08-08T10:47:30;25.90;48.90
55777;DHT22;54079;44.540;18.784;2023-08-08T10:52:31;26.60;48.90
55777;DHT22;54079;44.540;18.784;2023-08-08T10:54:57;27.30;48.30
55777;DHT22;54079;44.540;18.784;2023-08-08T10:57:27;26.50;46.40
55777;DHT22;54079;44.540;18.784;2023-08-08T10:59:53;27.00;48.80
55777;DHT22;54079;44.540;18.784;2023-08-08T11:02:20;26.50;50.00
55777;DHT22;54079;44.540;18.784;2023-08-08T11:04:48;26.60;47.30
55777;DHT22;54079;44.540;18.784;2023-08-08T11:07:15;26.30;48.40
55777;DHT22;54079;44.540;18.784;2023-08-08T11:09:42;26.00;49.10
55777;DHT22;54079;44.540;18.784;2023-08-08T11:12:14;25.90;50.10
55777;DHT22;54079;44.540;18.784;2023-08-08T11:14:40;26.10;50.30
55777;DHT22;54079;44.540;18.784;2023-08-08T11:17:06;26.20;48.20
55777;DHT22;54079;44.540;18.784;2023-08-08T11:19:39;26.60;48.00
55777;DHT22;54079;44.540;18.784;2023-08-08T11:22:09;27.40;48.90
55777;DHT22;54079;44.540;18.784;2023-08-08T11:24:36;28.00;49.40
55777;DHT22;54079;44.540;18.784;2023-08-08T11:27:02;28.10;47.00
55777;DHT22;54079;44.540;18.784;2023-08-08T11:29:28;26.90;48.00
55777;DHT22;54079;44.540;18.784;2023-08-08T11:31:59;27.40;49.20
55777;DHT22;54079;44.540;18.784;2023-08-08T11:34:25;28.10;50.80
55777;DHT22;54079;44.540;18.784;2023-08-08T11:36:51;28.90;49.20
55777;DHT22;54079;44.540;18.784;2023-08-08T11:39:17;29.00;50.30
55777;DHT22;54079;44.540;18.784;2023-08-08T11:41:44;29.40;47.50
55777;DHT22;54079;44.540;18.784;2023-08-08T11:44:11;29.70;47.60
55777;DHT22;54079;44.540;18.784;2023-08-08T11:46:44;29.20;47.80
55777;DHT22;54079;44.540;18.784;2023-08-08T11:49:11;29.60;45.90
55777;DHT22;54079;44.540;18.784;2023-08-08T11:51:39;27.80;47.90
55777;DHT22;54079;44.540;18.784;2023-08-08T11:54:05;26.60;48.40
55777;DHT22;54079;44.540;18.784;2023-08-08T11:56:33;26.90;48.80
55777;DHT22;54079;44.540;18.784;2023-08-08T11:59:00;27.30;49.30
55777;DHT22;54079;44.540;18.784;2023-08-08T12:01:26;28.00;48.90
55777;DHT22;54079;44.540;18.784;2023-08-08T12:03:53;27.80;50.50
55777;DHT22;54079;44.540;18.784;2023-08-08T12:06:19;27.50;47.80
55777;DHT22;54079;44.540;18.784;2023-08-08T12:08:47;27.40;48.30
55777;DHT22;54079;44.540;18.784;2023-08-08T12:11:14;26.80;49.80
55777;DHT22;54079;44.540;18.784;2023-08-08T12:13:43;26.80;49.30
55777;DHT22;54079;44.540;18.784;2023-08-08T12:16:10;27.00;50.80
55777;DHT22;54079;44.540;18.784;2023-08-08T12:18:37;27.00;50.10
55777;DHT22;54079;44.540;18.784;2023-08-08T12:21:07;27.40;48.00
55777;DHT22;54079;44.540;18.784;2023-08-08T12:23:34;27.60;49.30
55777;DHT22;54079;44.540;18.784;2023-08-08T12:26:03;28.30;49.40
55777;DHT22;54079;44.540;18.784;2023-08-08T12:28:31;28.60;49.50
55777;DHT22;54079;44.540;18.784;2023-08-08T12:30:57;28.30;49.30
55777;DHT22;54079;44.540;18.784;2023-08-08T12:33:23;28.00;48.90
55777;DHT22;54079;44.540;18.784;2023-08-08T12:35:49;26.70;51.00
55777;DHT22;54079;44.540;18.784;2023-08-08T12:38:15;26.50;51.30
55777;DHT22;54079;44.540;18.784;2023-08-08T12:40:41;26.90;50.90
55777;DHT22;54079;44.540;18.784;2023-08-08T12:43:08;27.20;51.20
55777;DHT22;54079;44.540;18.784;2023-08-08T12:45:34;26.70;51.30
55777;DHT22;54079;44.540;18.784;2023-08-08T12:48:00;25.80;50.30
55777;DHT22;54079;44.540;18.784;2023-08-08T12:50:26;26.00;50.70
55777;DHT22;54079;44.540;18.784;2023-08-08T12:52:54;26.50;51.00
55777;DHT22;54079;44.540;18.784;2023-08-08T12:55:20;26.30;50.90
55777;DHT22;54079;44.540;18.784;2023-08-08T12:57:46;26.10;50.30
55777;DHT22;54079;44.540;18.784;2023-08-08T13:00:14;26.50;51.80
55777;DHT22;54079;44.540;18.784;2023-08-08T13:02:40;26.70;49.10
55777;DHT22;54079;44.540;18.784;2023-08-08T13:05:06;25.70;49.90
55777;DHT22;54079;44.540;18.784;2023-08-08T13:07:32;26.00;50.10
55777;DHT22;54079;44.540;18.784;2023-08-08T13:09:59;26.80;50.90
55777;DHT22;54079;44.540;18.784;2023-08-08T13:12:25;27.30;50.30
55777;DHT22;54079;44.540;18.784;2023-08-08T13:14:51;27.90;50.10
55777;DHT22;54079;44.540;18.784;2023-08-08T13:17:17;28.20;48.20
55777;DHT22;54079;44.540;18.784;2023-08-08T13:19:42;28.60;48.50
55777;DHT22;54079;44.540;18.784;2023-08-08T13:22:08;28.90;48.70
55777;DHT22;54079;44.540;18.784;2023-08-08T13:24:34;28.60;47.80
55777;DHT22;54079;44.540;18.784;2023-08-08T13:27:00;28.50;48.60
55777;DHT22;54079;44.540;18.784;2023-08-08T13:29:26;27.30;48.00
55777;DHT22;54079;44.540;18.784;2023-08-08T13:31:52;26.60;49.80
55777;DHT22;54079;44.540;18.784;2023-08-08T13:34:18;26.50;49.80
55777;DHT22;54079;44.540;18.784;2023-08-08T13:36:44;26.60;50.70
55777;DHT22;54079;44.540;18.784;2023-08-08T13:39:10;26.70;50.30
55777;DHT22;54079;44.540;18.784;2023-08-08T13:41:36;26.60;51.80
55777;DHT22;54079;44.540;18.784;2023-08-08T13:44:02;26.10;49.80
55777;DHT22;54079;44.540;18.784;2023-08-08T13:46:28;25.80;51.00
55777;DHT22;54079;44.540;18.784;2023-08-08T13:48:54;25.70;50.70
55777;DHT22;54079;44.540;18.784;2023-08-08T13:51:20;25.80;52.70
55777;DHT22;54079;44.540;18.784;2023-08-08T13:53:46;25.50;52.10
55777;DHT22;54079;44.540;18.784;2023-08-08T13:56:14;25.70;52.30
55777;DHT22;54079;44.540;18.784;2023-08-08T13:58:40;25.80;51.00
55777;DHT22;54079;44.540;18.784;2023-08-08T14:01:06;25.90;52.30
55777;DHT22;54079;44.540;18.784;2023-08-08T14:03:32;26.30;53.50
55777;DHT22;54079;44.540;18.784;2023-08-08T14:05:58;26.40;52.70
55777;DHT22;54079;44.540;18.784;2023-08-08T14:08:25;26.10;51.40
55777;DHT22;54079;44.540;18.784;2023-08-08T14:10:51;26.10;53.70
55777;DHT22;54079;44.540;18.784;2023-08-08T14:13:17;25.80;52.50
55777;DHT22;54079;44.540;18.784;2023-08-08T14:15:44;25.70;52.60
55777;DHT22;54079;44.540;18.784;2023-08-08T14:18:11;25.90;54.50
55777;DHT22;54079;44.540;18.784;2023-08-08T14:20:37;26.00;52.80
55777;DHT22;54079;44.540;18.784;2023-08-08T14:23:04;25.90;52.10
55777;DHT22;54079;44.540;18.784;2023-08-08T14:25:31;25.70;52.90
55777;DHT22;54079;44.540;18.784;2023-08-08T14:27:57;25.70;55.20
55777;DHT22;54079;44.540;18.784;2023-08-08T14:30:23;25.50;54.30
55777;DHT22;54079;44.540;18.784;2023-08-08T14:32:51;25.40;54.70
55777;DHT22;54079;44.540;18.784;2023-08-08T14:35:17;25.10;55.00
55777;DHT22;54079;44.540;18.784;2023-08-08T14:37:43;24.60;53.10
55777;DHT22;54079;44.540;18.784;2023-08-08T14:40:09;24.70;53.50
55777;DHT22;54079;44.540;18.784;2023-08-08T14:42:42;24.60;54.60
55777;DHT22;54079;44.540;18.784;2023-08-08T14:45:09;24.10;54.10
55777;DHT22;54079;44.540;18.784;2023-08-08T14:47:35;24.20;57.30
55777;DHT22;54079;44.540;18.784;2023-08-08T14:50:01;24.60;56.50
55777;DHT22;54079;44.540;18.784;2023-08-08T14:52:27;24.90;55.80
55777;DHT22;54079;44.540;18.784;2023-08-08T14:54:53;25.10;54.80
55777;DHT22;54079;44.540;18.784;2023-08-08T14:57:19;25.20;53.10
55777;DHT22;54079;44.540;18.784;2023-08-08T14:59:45;25.40;53.30
55777;DHT22;54079;44.540;18.784;2023-08-08T15:02:11;25.50;53.60
55777;DHT22;54079;44.540;18.784;2023-08-08T15:04:37;25.60;54.00
55777;DHT22;54079;44.540;18.784;2023-08-08T15:07:02;25.40;52.60
55777;DHT22;54079;44.540;18.784;2023-08-08T15:09:29;25.40;52.70
55777;DHT22;54079;44.540;18.784;2023-08-08T15:11:55;25.40;52.70
55777;DHT22;54079;44.540;18.784;2023-08-08T15:14:21;25.60;54.20